createdAt,value
2023-03-28T00:02:24.510Z,2.43
2023-03-28T00:12:27.741Z,3.03
2023-03-28T00:22:33.403Z,2.87
2023-03-28T00:32:37.261Z,2.70
2023-03-28T00:42:44.470Z,2.90
2023-03-28T00:52:52.243Z,2.97
2023-03-28T01:02:58.468Z,2.80
2023-03-28T01:13:03.712Z,2.90
2023-03-28T01:23:51.155Z,2.80
2023-03-28T01:34:29.775Z,3.13
2023-03-28T01:44:41.411Z,2.63
2023-03-28T01:54:54.516Z,2.90
2023-03-28T02:05:02.084Z,3.07
2023-03-28T02:15:09.635Z,3.40
2023-03-28T02:25:33.409Z,3.20
2023-03-28T02:36:03.585Z,3.40
2023-03-28T02:46:20.884Z,3.03
2023-03-28T02:56:31.928Z,3.07
2023-03-28T03:06:45.571Z,3.20
2023-03-28T03:16:51.695Z,3.23
2023-03-28T03:26:57.281Z,3.50
2023-03-28T03:37:00.634Z,3.27
2023-03-28T03:47:06.728Z,3.67
2023-03-28T03:57:10.577Z,3.80
2023-03-28T04:07:16.141Z,3.80
2023-03-28T04:17:21.516Z,3.83
2023-03-28T04:27:29.714Z,3.67
2023-03-28T04:37:37.806Z,4.20
2023-03-28T04:47:44.635Z,3.47
2023-03-28T04:57:53.344Z,4.00
2023-03-28T05:08:00.937Z,4.13
2023-03-28T05:18:04.704Z,3.93
2023-03-28T05:28:14.003Z,4.20
2023-03-28T05:38:25.759Z,4.13
2023-03-28T05:48:34.877Z,4.00
2023-03-28T05:58:38.320Z,3.80
2023-03-28T06:08:43.228Z,3.70
2023-03-28T06:18:47.847Z,3.57
2023-03-28T06:28:52.703Z,3.90
2023-03-28T06:39:06.881Z,3.43
2023-03-28T06:49:11.760Z,3.83
2023-03-28T06:59:38.284Z,3.00
2023-03-28T07:09:45.672Z,2.50
2023-03-28T07:19:51.307Z,2.43
2023-03-28T07:29:56.155Z,2.50
2023-03-28T07:40:00.496Z,2.40
2023-03-28T07:50:05.897Z,1.90
2023-03-28T08:00:13.212Z,2.23
2023-03-28T08:10:18.062Z,2.47
2023-03-28T08:20:21.794Z,2.40
2023-03-28T08:30:45.834Z,2.03
2023-03-28T08:40:59.854Z,3.27
2023-03-28T08:51:20.017Z,2.60
2023-03-28T09:01:24.040Z,2.13
2023-03-28T09:11:40.552Z,2.40
2023-03-28T09:22:12.540Z,2.47
2023-03-28T09:32:27.308Z,2.30
2023-03-28T09:42:38.615Z,2.23
2023-03-28T09:52:59.602Z,2.30
2023-03-28T10:03:03.317Z,2.30
2023-03-28T10:13:11.626Z,1.93
2023-03-28T10:23:16.832Z,1.80
2023-03-28T10:33:27.600Z,2.40
2023-03-28T10:43:42.942Z,1.83
2023-03-28T10:54:08.319Z,2.30
2023-03-28T11:04:24.592Z,2.00
2023-03-28T11:14:47.193Z,2.00
2023-03-28T11:25:07.648Z,1.87
2023-03-28T11:35:34.036Z,2.40
2023-03-28T11:45:51.069Z,2.13
2023-03-28T12:06:33.936Z,1.90
2023-03-28T12:16:42.401Z,1.97
2023-03-28T12:27:02.058Z,1.93
2023-03-28T12:37:14.256Z,1.90
2023-03-28T12:47:22.547Z,2.30
2023-03-28T12:57:48.432Z,1.90
2023-03-28T13:08:18.160Z,1.63
2023-03-28T13:18:34.157Z,1.93
2023-03-28T13:28:43.946Z,2.10
2023-03-28T13:38:50.816Z,2.10
2023-03-28T13:49:01.401Z,2.20
2023-03-28T13:59:08.952Z,2.07
2023-03-28T14:09:16.491Z,1.97
2023-03-28T14:19:23.714Z,1.90
2023-03-28T14:29:27.032Z,2.10
2023-03-28T14:39:32.898Z,1.90
2023-03-28T14:49:38.471Z,2.47
2023-03-28T14:59:46.513Z,2.57
2023-03-28T15:10:06.588Z,2.33
2023-03-28T15:20:18.025Z,2.20
2023-03-28T15:30:21.858Z,2.07
2023-03-28T15:40:30.074Z,2.40
2023-03-28T15:50:37.525Z,2.57
2023-03-28T16:00:44.919Z,2.07
2023-03-28T16:10:48.154Z,2.67
2023-03-28T16:21:15.704Z,2.53
2023-03-28T16:31:18.985Z,2.50
2023-03-28T16:41:23.947Z,2.60
2023-03-28T16:51:27.347Z,3.00
2023-03-28T17:01:32.243Z,3.47
2023-03-28T17:11:36.052Z,3.10
2023-03-28T17:21:40.632Z,2.93
2023-03-28T17:31:43.911Z,3.40
2023-03-28T17:41:48.637Z,3.17
2023-03-28T17:51:52.088Z,2.90
2023-03-28T18:01:56.881Z,2.97
2023-03-28T18:12:00.150Z,2.97
2023-03-28T18:22:05.596Z,3.03
2023-03-28T18:32:08.783Z,3.03
2023-03-28T18:42:13.358Z,3.40
2023-03-28T18:52:16.676Z,3.03
2023-03-28T19:02:22.130Z,3.23
2023-03-28T19:12:25.474Z,3.10
2023-03-28T19:22:30.138Z,3.47
2023-03-28T19:32:33.675Z,3.67
2023-03-28T19:42:38.270Z,3.47
2023-03-28T19:52:42.576Z,3.30
2023-03-28T20:02:47.286Z,3.40
2023-03-28T20:12:50.495Z,3.73
2023-03-28T20:22:58.144Z,3.33
2023-03-28T20:33:01.638Z,3.70
2023-03-28T20:43:09.930Z,3.80
2023-03-28T20:53:13.308Z,4.30
2023-03-28T21:03:18.400Z,4.07
2023-03-28T21:13:23.114Z,4.07
2023-03-28T21:23:27.782Z,3.77
2023-03-28T21:33:31.961Z,4.07
2023-03-28T21:43:36.792Z,4.10
2023-03-28T21:53:41.882Z,3.80
2023-03-28T22:03:47.134Z,2.90
2023-03-28T22:13:50.510Z,3.10
2023-03-28T22:23:55.464Z,2.60
2023-03-28T22:33:58.765Z,2.20
2023-03-28T22:44:03.968Z,2.40
2023-03-28T22:54:07.211Z,2.30
2023-03-28T23:04:12.940Z,2.47
2023-03-28T23:14:16.383Z,3.37
2023-03-28T23:24:21.023Z,3.20
2023-03-28T23:34:24.200Z,3.33
2023-03-28T23:44:28.986Z,3.07
2023-03-28T23:54:32.216Z,3.07
